Terminal Aerodrome Forecast
Issued by NWS Columbia, SC

Home | Current Version | Previous Version | Text Only | Print | Product List | Glossary On
Versions: 1 2 3 4 5 6 7 8 9 10 11 12 13 14 15 16 17 18 19 20 21 22 23 24 25 26 27 28 29 30 31 32 33 34 35 36 37 38 39 40 41 42 43 44 45 46 47 48 49 50
000
FTAK31 PAJN 022300
TAFAGS
TAF
PAGS 022330Z 0300/0324 22006KT P6SM SCT050
     FM030400 VRB03KT P6SM SCT015 BKN025 OVC040
     FM030900 VRB04KT P6SM VCSH BKN015 OVC025
     FM031500 14005KT 5SM -RA BR BKN007 BKN015 OVC025
     FM032100 16006KT 6SM -RA BR BKN025 OVC050
      AMD LTD TO CLD VIS AND WIND=

USA.gov is the U.S. government's official web portal to all federal, state and local government web resources and services.